sensor_id;sensor_type;location;lat;lon;timestamp;temperature;humidity
45383;DHT22;42455;51.660;5.824;2023-06-14T00:03:53;20.3;56.5
45383;DHT22;42455;51.660;5.824;2023-06-14T00:08:59;20.3;56.5
45383;DHT22;42455;51.660;5.824;2023-06-14T00:14:05;20.2;56.5
45383;DHT22;42455;51.660;5.824;2023-06-14T00:19:11;20.2;56.0
45383;DHT22;42455;51.660;5.824;2023-06-14T00:24:17;20.1;56.0
45383;DHT22;42455;51.660;5.824;2023-06-14T00:29:23;20.1;55.5
45383;DHT22;42455;51.660;5.824;2023-06-14T00:34:29;20.1;55.5
45383;DHT22;42455;51.660;5.824;2023-06-14T00:39:35;20.0;55.5
45383;DHT22;42455;51.660;5.824;2023-06-14T00:44:41;20.0;55.0
45383;DHT22;42455;51.660;5.824;2023-06-14T00:49:49;20.0;55.0
45383;DHT22;42455;51.660;5.824;2023-06-14T00:54:54;19.9;55.0
45383;DHT22;42455;51.660;5.824;2023-06-14T01:00:00;19.9;55.0
45383;DHT22;42455;51.660;5.824;2023-06-14T01:05:07;19.9;55.0
45383;DHT22;42455;51.660;5.824;2023-06-14T01:10:31;19.8;55.0
45383;DHT22;42455;51.660;5.824;2023-06-14T01:15:20;19.8;55.0
45383;DHT22;42455;51.660;5.824;2023-06-14T01:20:30;19.8;55.0
45383;DHT22;42455;51.660;5.824;2023-06-14T01:25:31;19.7;55.0
45383;DHT22;42455;51.660;5.824;2023-06-14T01:30:38;19.7;55.0
45383;DHT22;42455;51.660;5.824;2023-06-14T01:35:47;19.6;55.0
45383;DHT22;42455;51.660;5.824;2023-06-14T01:40:50;19.6;55.0
45383;DHT22;42455;51.660;5.824;2023-06-14T01:45:57;19.5;55.0
45383;DHT22;42455;51.660;5.824;2023-06-14T01:51:02;19.4;55.5
45383;DHT22;42455;51.660;5.824;2023-06-14T01:56:08;19.3;55.5
45383;DHT22;42455;51.660;5.824;2023-06-14T02:01:14;19.2;55.5
45383;DHT22;42455;51.660;5.824;2023-06-14T02:06:21;19.2;55.5
45383;DHT22;42455;51.660;5.824;2023-06-14T02:11:27;19.1;56.0
45383;DHT22;42455;51.660;5.824;2023-06-14T02:16:33;18.9;56.0
45383;DHT22;42455;51.660;5.824;2023-06-14T02:21:39;18.9;56.5
45383;DHT22;42455;51.660;5.824;2023-06-14T02:26:45;18.8;56.5
45383;DHT22;42455;51.660;5.824;2023-06-14T02:31:52;18.7;57.0
45383;DHT22;42455;51.660;5.824;2023-06-14T02:36:58;18.6;57.5
45383;DHT22;42455;51.660;5.824;2023-06-14T02:42:04;18.5;58.0
45383;DHT22;42455;51.660;5.824;2023-06-14T02:47:10;18.4;58.0
45383;DHT22;42455;51.660;5.824;2023-06-14T02:52:16;18.4;58.0
45383;DHT22;42455;51.660;5.824;2023-06-14T02:57:23;18.3;58.5
45383;DHT22;42455;51.660;5.824;2023-06-14T03:02:29;18.2;58.5
45383;DHT22;42455;51.660;5.824;2023-06-14T03:07:35;18.1;58.5
45383;DHT22;42455;51.660;5.824;2023-06-14T03:12:41;18.1;59.0
45383;DHT22;42455;51.660;5.824;2023-06-14T03:17:47;18.0;59.0
45383;DHT22;42455;51.660;5.824;2023-06-14T03:22:54;17.9;59.0
45383;DHT22;42455;51.660;5.824;2023-06-14T03:28:00;17.9;59.5
45383;DHT22;42455;51.660;5.824;2023-06-14T03:33:06;17.8;59.5
45383;DHT22;42455;51.660;5.824;2023-06-14T03:38:12;17.8;60.0
45383;DHT22;42455;51.660;5.824;2023-06-14T03:43:18;17.7;60.0
45383;DHT22;42455;51.660;5.824;2023-06-14T03:48:25;17.7;60.5
45383;DHT22;42455;51.660;5.824;2023-06-14T03:53:31;17.7;60.5
45383;DHT22;42455;51.660;5.824;2023-06-14T03:58:37;17.7;60.5
45383;DHT22;42455;51.660;5.824;2023-06-14T04:03:43;17.6;61.0
45383;DHT22;42455;51.660;5.824;2023-06-14T04:08:49;17.6;61.0
45383;DHT22;42455;51.660;5.824;2023-06-14T04:13:56;17.6;61.0
45383;DHT22;42455;51.660;5.824;2023-06-14T04:19:02;17.6;61.5
45383;DHT22;42455;51.660;5.824;2023-06-14T04:24:08;17.6;61.5
45383;DHT22;42455;51.660;5.824;2023-06-14T04:29:15;17.6;62.0
45383;DHT22;42455;51.660;5.824;2023-06-14T04:34:21;17.6;62.5
45383;DHT22;42455;51.660;5.824;2023-06-14T04:39:27;17.7;62.5
45383;DHT22;42455;51.660;5.824;2023-06-14T04:44:33;17.7;62.5
45383;DHT22;42455;51.660;5.824;2023-06-14T04:49:39;17.8;63.0
45383;DHT22;42455;51.660;5.824;2023-06-14T04:54:45;17.9;63.5
45383;DHT22;42455;51.660;5.824;2023-06-14T04:59:52;18.0;63.5
45383;DHT22;42455;51.660;5.824;2023-06-14T05:04:58;18.2;63.5
45383;DHT22;42455;51.660;5.824;2023-06-14T05:10:05;18.4;63.5
45383;DHT22;42455;51.660;5.824;2023-06-14T05:15:10;18.6;63.0
45383;DHT22;42455;51.660;5.824;2023-06-14T05:20:16;18.7;62.5
45383;DHT22;42455;51.660;5.824;2023-06-14T05:25:23;18.9;62.5
45383;DHT22;42455;51.660;5.824;2023-06-14T05:30:29;19.0;62.0
45383;DHT22;42455;51.660;5.824;2023-06-14T05:35:35;19.2;62.0
45383;DHT22;42455;51.660;5.824;2023-06-14T05:40:41;19.3;62.0
45383;DHT22;42455;51.660;5.824;2023-06-14T05:45:48;19.5;62.0
45383;DHT22;42455;51.660;5.824;2023-06-14T05:50:54;19.6;62.0
45383;DHT22;42455;51.660;5.824;2023-06-14T05:56:00;19.8;61.5
45383;DHT22;42455;51.660;5.824;2023-06-14T06:01:05;19.9;61.5
45383;DHT22;42455;51.660;5.824;2023-06-14T06:06:11;20.1;61.0
45383;DHT22;42455;51.660;5.824;2023-06-14T06:11:18;20.3;61.0
45383;DHT22;42455;51.660;5.824;2023-06-14T06:16:24;20.5;61.0
45383;DHT22;42455;51.660;5.824;2023-06-14T06:21:30;20.7;60.5
45383;DHT22;42455;51.660;5.824;2023-06-14T06:26:36;21.0;60.0
45383;DHT22;42455;51.660;5.824;2023-06-14T06:31:42;21.2;59.5
45383;DHT22;42455;51.660;5.824;2023-06-14T06:36:49;21.4;59.5
45383;DHT22;42455;51.660;5.824;2023-06-14T06:41:55;21.7;59.0
45383;DHT22;42455;51.660;5.824;2023-06-14T06:47:01;22.0;59.0
45383;DHT22;42455;51.660;5.824;2023-06-14T06:52:08;22.3;58.5
45383;DHT22;42455;51.660;5.824;2023-06-14T06:57:13;22.7;58.5
45383;DHT22;42455;51.660;5.824;2023-06-14T07:02:20;23.0;57.5
45383;DHT22;42455;51.660;5.824;2023-06-14T07:07:26;23.3;56.5
45383;DHT22;42455;51.660;5.824;2023-06-14T07:12:32;23.6;56.0
45383;DHT22;42455;51.660;5.824;2023-06-14T07:17:38;23.8;55.0
45383;DHT22;42455;51.660;5.824;2023-06-14T07:22:44;24.0;54.5
45383;DHT22;42455;51.660;5.824;2023-06-14T07:27:51;24.2;54.0
45383;DHT22;42455;51.660;5.824;2023-06-14T07:32:57;24.3;53.5
45383;DHT22;42455;51.660;5.824;2023-06-14T07:38:03;24.4;53.0
45383;DHT22;42455;51.660;5.824;2023-06-14T07:43:09;24.6;53.0
45383;DHT22;42455;51.660;5.824;2023-06-14T07:48:16;24.7;52.0
45383;DHT22;42455;51.660;5.824;2023-06-14T07:53:22;24.8;52.0
45383;DHT22;42455;51.660;5.824;2023-06-14T07:58:28;25.0;52.0
45383;DHT22;42455;51.660;5.824;2023-06-14T08:03:34;25.2;51.5
45383;DHT22;42455;51.660;5.824;2023-06-14T08:08:40;25.4;50.5
45383;DHT22;42455;51.660;5.824;2023-06-14T08:13:47;25.5;50.5
45383;DHT22;42455;51.660;5.824;2023-06-14T08:18:53;25.7;49.5
45383;DHT22;42455;51.660;5.824;2023-06-14T08:23:59;25.8;49.0
45383;DHT22;42455;51.660;5.824;2023-06-14T08:29:05;25.9;49.0
45383;DHT22;42455;51.660;5.824;2023-06-14T08:34:11;26.1;47.5
45383;DHT22;42455;51.660;5.824;2023-06-14T08:39:18;26.1;47.0
45383;DHT22;42455;51.660;5.824;2023-06-14T08:44:24;26.1;46.5
45383;DHT22;42455;51.660;5.824;2023-06-14T08:49:31;26.1;46.0
45383;DHT22;42455;51.660;5.824;2023-06-14T08:54:36;26.2;45.5
45383;DHT22;42455;51.660;5.824;2023-06-14T08:59:48;26.3;45.5
45383;DHT22;42455;51.660;5.824;2023-06-14T09:04:49;26.3;45.0
45383;DHT22;42455;51.660;5.824;2023-06-14T09:10:08;26.4;44.5
45383;DHT22;42455;51.660;5.824;2023-06-14T09:15:01;26.5;44.5
45383;DHT22;42455;51.660;5.824;2023-06-14T09:20:08;26.6;44.5
45383;DHT22;42455;51.660;5.824;2023-06-14T09:25:14;26.7;44.5
45383;DHT22;42455;51.660;5.824;2023-06-14T09:30:20;26.9;44.5
45383;DHT22;42455;51.660;5.824;2023-06-14T09:35:26;27.0;43.5
45383;DHT22;42455;51.660;5.824;2023-06-14T09:40:33;27.1;43.5
45383;DHT22;42455;51.660;5.824;2023-06-14T09:45:39;27.1;43.0
45383;DHT22;42455;51.660;5.824;2023-06-14T09:50:45;27.1;43.0
45383;DHT22;42455;51.660;5.824;2023-06-14T09:55:52;27.2;43.0
45383;DHT22;42455;51.660;5.824;2023-06-14T10:00:58;27.2;43.5
45383;DHT22;42455;51.660;5.824;2023-06-14T10:06:05;27.3;43.5
45383;DHT22;42455;51.660;5.824;2023-06-14T10:11:11;27.4;43.0
45383;DHT22;42455;51.660;5.824;2023-06-14T10:16:23;27.4;43.0
45383;DHT22;42455;51.660;5.824;2023-06-14T10:21:26;27.5;43.0
45383;DHT22;42455;51.660;5.824;2023-06-14T10:26:28;27.5;43.0
45383;DHT22;42455;51.660;5.824;2023-06-14T10:31:43;27.6;43.0
45383;DHT22;42455;51.660;5.824;2023-06-14T10:36:41;27.6;43.0
45383;DHT22;42455;51.660;5.824;2023-06-14T10:41:52;27.7;43.0
45383;DHT22;42455;51.660;5.824;2023-06-14T10:46:54;27.7;43.0
45383;DHT22;42455;51.660;5.824;2023-06-14T10:51:59;27.7;43.0
45383;DHT22;42455;51.660;5.824;2023-06-14T10:57:06;27.7;43.5
45383;DHT22;42455;51.660;5.824;2023-06-14T11:02:49;27.7;43.5
45383;DHT22;42455;51.660;5.824;2023-06-14T11:07:47;27.8;43.0
45383;DHT22;42455;51.660;5.824;2023-06-14T11:12:27;27.7;43.0
45383;DHT22;42455;51.660;5.824;2023-06-14T11:17:30;27.7;42.5
45383;DHT22;42455;51.660;5.824;2023-06-14T11:22:40;27.7;42.5
45383;DHT22;42455;51.660;5.824;2023-06-14T11:27:44;27.8;42.5
45383;DHT22;42455;51.660;5.824;2023-06-14T11:32:49;27.7;42.5
45383;DHT22;42455;51.660;5.824;2023-06-14T11:37:55;27.7;42.0
45383;DHT22;42455;51.660;5.824;2023-06-14T11:43:02;27.7;42.0
45383;DHT22;42455;51.660;5.824;2023-06-14T11:48:07;27.8;42.0
45383;DHT22;42455;51.660;5.824;2023-06-14T11:53:13;27.8;41.5
45383;DHT22;42455;51.660;5.824;2023-06-14T11:58:19;27.9;42.0
45383;DHT22;42455;51.660;5.824;2023-06-14T12:03:26;28.1;42.0
45383;DHT22;42455;51.660;5.824;2023-06-14T12:08:32;28.1;41.5
45383;DHT22;42455;51.660;5.824;2023-06-14T12:13:38;28.2;42.0
45383;DHT22;42455;51.660;5.824;2023-06-14T12:18:44;28.2;41.0
45383;DHT22;42455;51.660;5.824;2023-06-14T12:23:50;28.1;41.5
45383;DHT22;42455;51.660;5.824;2023-06-14T12:28:57;28.2;42.0
45383;DHT22;42455;51.660;5.824;2023-06-14T12:34:03;28.2;41.0
45383;DHT22;42455;51.660;5.824;2023-06-14T12:39:09;28.2;40.5
45383;DHT22;42455;51.660;5.824;2023-06-14T12:44:15;28.1;41.0
45383;DHT22;42455;51.660;5.824;2023-06-14T12:49:21;28.2;41.5
45383;DHT22;42455;51.660;5.824;2023-06-14T12:54:28;28.3;41.5
45383;DHT22;42455;51.660;5.824;2023-06-14T12:59:34;28.4;40.5
45383;DHT22;42455;51.660;5.824;2023-06-14T13:04:40;28.4;41.0
45383;DHT22;42455;51.660;5.824;2023-06-14T13:09:46;28.5;41.5
45383;DHT22;42455;51.660;5.824;2023-06-14T13:14:53;28.6;42.5
45383;DHT22;42455;51.660;5.824;2023-06-14T13:19:59;28.6;41.0
45383;DHT22;42455;51.660;5.824;2023-06-14T13:25:06;28.7;41.0
45383;DHT22;42455;51.660;5.824;2023-06-14T13:30:11;28.6;40.0
45383;DHT22;42455;51.660;5.824;2023-06-14T13:35:18;28.6;40.0
45383;DHT22;42455;51.660;5.824;2023-06-14T13:40:24;28.6;39.5
45383;DHT22;42455;51.660;5.824;2023-06-14T13:45:30;28.6;40.0
45383;DHT22;42455;51.660;5.824;2023-06-14T13:50:36;28.7;40.5
45383;DHT22;42455;51.660;5.824;2023-06-14T13:55:42;28.8;40.5
45383;DHT22;42455;51.660;5.824;2023-06-14T14:00:48;28.9;40.0
45383;DHT22;42455;51.660;5.824;2023-06-14T14:05:55;29.0;39.5
45383;DHT22;42455;51.660;5.824;2023-06-14T14:11:01;29.1;39.5
45383;DHT22;42455;51.660;5.824;2023-06-14T14:16:07;29.1;39.0
45383;DHT22;42455;51.660;5.824;2023-06-14T14:21:13;29.1;39.5
45383;DHT22;42455;51.660;5.824;2023-06-14T14:26:20;29.1;40.0
45383;DHT22;42455;51.660;5.824;2023-06-14T14:31:26;29.2;40.0
45383;DHT22;42455;51.660;5.824;2023-06-14T14:36:32;29.3;40.5
45383;DHT22;42455;51.660;5.824;2023-06-14T14:41:38;29.3;40.5
45383;DHT22;42455;51.660;5.824;2023-06-14T14:46:44;29.3;39.5
45383;DHT22;42455;51.660;5.824;2023-06-14T14:51:51;29.2;40.0
45383;DHT22;42455;51.660;5.824;2023-06-14T14:56:57;29.2;40.0
45383;DHT22;42455;51.660;5.824;2023-06-14T15:02:03;29.3;40.0
45383;DHT22;42455;51.660;5.824;2023-06-14T15:07:09;29.3;40.0
45383;DHT22;42455;51.660;5.824;2023-06-14T15:12:16;29.3;40.0
45383;DHT22;42455;51.660;5.824;2023-06-14T15:17:22;29.3;40.0
45383;DHT22;42455;51.660;5.824;2023-06-14T15:22:28;29.4;40.0
45383;DHT22;42455;51.660;5.824;2023-06-14T15:27:34;29.5;40.5
45383;DHT22;42455;51.660;5.824;2023-06-14T15:32:40;29.5;40.0
45383;DHT22;42455;51.660;5.824;2023-06-14T15:37:47;29.5;40.0
45383;DHT22;42455;51.660;5.824;2023-06-14T15:42:53;29.6;40.0
45383;DHT22;42455;51.660;5.824;2023-06-14T15:47:59;29.6;40.0
45383;DHT22;42455;51.660;5.824;2023-06-14T15:53:05;29.7;40.5
45383;DHT22;42455;51.660;5.824;2023-06-14T15:58:11;29.7;40.0
45383;DHT22;42455;51.660;5.824;2023-06-14T16:03:18;29.7;39.5
45383;DHT22;42455;51.660;5.824;2023-06-14T16:08:24;29.6;39.5
45383;DHT22;42455;51.660;5.824;2023-06-14T16:13:30;29.5;39.5
45383;DHT22;42455;51.660;5.824;2023-06-14T16:18:37;29.5;39.5
45383;DHT22;42455;51.660;5.824;2023-06-14T16:23:43;29.5;40.0
45383;DHT22;42455;51.660;5.824;2023-06-14T16:28:49;29.6;40.0
45383;DHT22;42455;51.660;5.824;2023-06-14T16:33:55;29.7;39.5
45383;DHT22;42455;51.660;5.824;2023-06-14T16:39:01;29.7;39.5
45383;DHT22;42455;51.660;5.824;2023-06-14T16:44:07;29.7;39.0
45383;DHT22;42455;51.660;5.824;2023-06-14T16:49:14;29.7;39.5
45383;DHT22;42455;51.660;5.824;2023-06-14T16:54:20;29.7;39.5
45383;DHT22;42455;51.660;5.824;2023-06-14T16:59:26;29.6;39.0
45383;DHT22;42455;51.660;5.824;2023-06-14T17:04:31;29.5;39.0
45383;DHT22;42455;51.660;5.824;2023-06-14T17:09:37;29.5;39.0
45383;DHT22;42455;51.660;5.824;2023-06-14T17:14:44;29.3;39.0
45383;DHT22;42455;51.660;5.824;2023-06-14T17:19:50;29.3;39.0
45383;DHT22;42455;51.660;5.824;2023-06-14T17:24:56;29.2;39.0
45383;DHT22;42455;51.660;5.824;2023-06-14T17:30:02;29.2;39.0
45383;DHT22;42455;51.660;5.824;2023-06-14T17:35:08;29.3;39.5
45383;DHT22;42455;51.660;5.824;2023-06-14T17:40:14;29.3;39.5
45383;DHT22;42455;51.660;5.824;2023-06-14T17:45:20;29.3;39.5
45383;DHT22;42455;51.660;5.824;2023-06-14T17:50:26;29.4;39.5
45383;DHT22;42455;51.660;5.824;2023-06-14T17:55:33;29.4;39.5
45383;DHT22;42455;51.660;5.824;2023-06-14T18:00:39;29.4;39.5
45383;DHT22;42455;51.660;5.824;2023-06-14T18:05:45;29.3;39.0
45383;DHT22;42455;51.660;5.824;2023-06-14T18:10:51;29.2;39.0
45383;DHT22;42455;51.660;5.824;2023-06-14T18:15:57;29.0;39.5
45383;DHT22;42455;51.660;5.824;2023-06-14T18:21:03;28.8;39.5
45383;DHT22;42455;51.660;5.824;2023-06-14T18:26:10;28.6;40.0
45383;DHT22;42455;51.660;5.824;2023-06-14T18:31:16;28.5;40.5
45383;DHT22;42455;51.660;5.824;2023-06-14T18:36:23;28.4;40.5
45383;DHT22;42455;51.660;5.824;2023-06-14T18:41:28;28.2;41.0
45383;DHT22;42455;51.660;5.824;2023-06-14T18:46:34;28.1;41.0
45383;DHT22;42455;51.660;5.824;2023-06-14T18:51:41;27.8;41.0
45383;DHT22;42455;51.660;5.824;2023-06-14T18:56:47;27.6;41.5
45383;DHT22;42455;51.660;5.824;2023-06-14T19:01:53;27.3;42.0
45383;DHT22;42455;51.660;5.824;2023-06-14T19:06:59;27.1;42.5
45383;DHT22;42455;51.660;5.824;2023-06-14T19:12:06;26.9;42.5
45383;DHT22;42455;51.660;5.824;2023-06-14T19:17:12;26.6;43.0
45383;DHT22;42455;51.660;5.824;2023-06-14T19:22:18;26.3;43.0
45383;DHT22;42455;51.660;5.824;2023-06-14T19:27:24;26.0;43.5
45383;DHT22;42455;51.660;5.824;2023-06-14T19:32:30;25.8;44.0
45383;DHT22;42455;51.660;5.824;2023-06-14T19:37:37;25.6;44.5
45383;DHT22;42455;51.660;5.824;2023-06-14T19:42:43;25.3;45.0
45383;DHT22;42455;51.660;5.824;2023-06-14T19:47:49;25.1;45.5
45383;DHT22;42455;51.660;5.824;2023-06-14T19:52:55;24.9;46.0
45383;DHT22;42455;51.660;5.824;2023-06-14T19:58:02;24.7;46.5
45383;DHT22;42455;51.660;5.824;2023-06-14T20:03:08;24.5;46.5
45383;DHT22;42455;51.660;5.824;2023-06-14T20:08:14;24.3;47.0
45383;DHT22;42455;51.660;5.824;2023-06-14T20:13:20;24.1;47.5
45383;DHT22;42455;51.660;5.824;2023-06-14T20:18:26;23.9;47.5
45383;DHT22;42455;51.660;5.824;2023-06-14T20:23:33;23.7;48.5
45383;DHT22;42455;51.660;5.824;2023-06-14T20:28:39;23.6;49.0
45383;DHT22;42455;51.660;5.824;2023-06-14T20:33:45;23.4;49.0
45383;DHT22;42455;51.660;5.824;2023-06-14T20:38:51;23.2;49.5
45383;DHT22;42455;51.660;5.824;2023-06-14T20:43:57;23.1;50.5
45383;DHT22;42455;51.660;5.824;2023-06-14T20:49:04;22.9;50.5
45383;DHT22;42455;51.660;5.824;2023-06-14T20:54:10;22.8;51.0
45383;DHT22;42455;51.660;5.824;2023-06-14T20:59:16;22.7;51.5
45383;DHT22;42455;51.660;5.824;2023-06-14T21:04:22;22.5;52.0
45383;DHT22;42455;51.660;5.824;2023-06-14T21:09:28;22.4;52.5
45383;DHT22;42455;51.660;5.824;2023-06-14T21:14:35;22.2;53.0
45383;DHT22;42455;51.660;5.824;2023-06-14T21:19:41;22.1;53.5
45383;DHT22;42455;51.660;5.824;2023-06-14T21:24:47;22.0;53.5
45383;DHT22;42455;51.660;5.824;2023-06-14T21:29:53;22.0;54.0
45383;DHT22;42455;51.660;5.824;2023-06-14T21:34:59;21.9;54.5
45383;DHT22;42455;51.660;5.824;2023-06-14T21:40:06;21.7;54.5
45383;DHT22;42455;51.660;5.824;2023-06-14T21:45:12;21.7;55.0
45383;DHT22;42455;51.660;5.824;2023-06-14T21:50:18;21.6;55.0
45383;DHT22;42455;51.660;5.824;2023-06-14T21:55:24;21.5;55.5
45383;DHT22;42455;51.660;5.824;2023-06-14T22:00:31;21.4;56.0
45383;DHT22;42455;51.660;5.824;2023-06-14T22:05:37;21.3;56.0
45383;DHT22;42455;51.660;5.824;2023-06-14T22:10:43;21.2;56.5
45383;DHT22;42455;51.660;5.824;2023-06-14T22:15:49;21.1;57.0
45383;DHT22;42455;51.660;5.824;2023-06-14T22:20:55;20.9;57.0
45383;DHT22;42455;51.660;5.824;2023-06-14T22:26:02;20.8;57.5
45383;DHT22;42455;51.660;5.824;2023-06-14T22:31:09;20.8;58.0
45383;DHT22;42455;51.660;5.824;2023-06-14T22:36:14;20.6;58.0
45383;DHT22;42455;51.660;5.824;2023-06-14T22:41:20;20.6;58.5
45383;DHT22;42455;51.660;5.824;2023-06-14T22:46:26;20.5;58.5
45383;DHT22;42455;51.660;5.824;2023-06-14T22:51:33;20.4;59.0
45383;DHT22;42455;51.660;5.824;2023-06-14T22:56:39;20.3;59.0
45383;DHT22;42455;51.660;5.824;2023-06-14T23:01:45;20.2;59.0
45383;DHT22;42455;51.660;5.824;2023-06-14T23:06:50;20.0;60.0
45383;DHT22;42455;51.660;5.824;2023-06-14T23:11:57;19.9;60.0
45383;DHT22;42455;51.660;5.824;2023-06-14T23:17:03;19.8;60.5
45383;DHT22;42455;51.660;5.824;2023-06-14T23:22:09;19.7;61.0
45383;DHT22;42455;51.660;5.824;2023-06-14T23:27:15;19.6;61.0
45383;DHT22;42455;51.660;5.824;2023-06-14T23:37:28;19.4;61.5
45383;DHT22;42455;51.660;5.824;2023-06-14T23:42:34;19.3;61.5
45383;DHT22;42455;51.660;5.824;2023-06-14T23:47:40;19.2;62.0
45383;DHT22;42455;51.660;5.824;2023-06-14T23:52:46;19.2;62.0
45383;DHT22;42455;51.660;5.824;2023-06-14T23:57:52;19.1;62.5
